Nearby METAR Reports

 

KDLZ - Delaware, Ohio, USA
Distance from station: SW 3mi, 5km
Updated: Mon, 18-Nov-2019 5:35am EST
Clear
Clear
 Wind from calm
Wind: Calm
Temperature: 32°F , 0°C
Dew Point: 32°F , 0°C
Humidity: 100%
Barometer: 29.77 inHg , 1008.1 hPa
Clouds: Clear
Visibility: 10 miles , 16 km
2019/11/18 10:35 KDLZ 181035Z AUTO 00000KT 10SM CLR 00/00 A2977 RMK AO2
KOSU - Columbus/St Univ, Ohio, USA
Distance from station: S 16mi, 25km
Updated: Mon, 18-Nov-2019 4:53am EST
Clear
Clear
 Wind from calm
Wind: Calm
Temperature: 36°F , 2°C
Dew Point: 28°F , -2°C
Humidity: 75%
Barometer: 29.77 inHg , 1008.1 hPa
Clouds: Clear
Visibility: 10 miles , 16 km
2019/11/18 09:53 KOSU 180953Z AUTO 00000KT 10SM CLR 02/M02 A2977 RMK AO2 SLP087 T00171017
 
KMRT - Marysville, Ohio, USA
Distance from station: WSW 16mi, 26km
Updated: Mon, 18-Nov-2019 5:35am EST
Clear
Clear
 Wind from calm
Wind: Calm
Temperature: 30°F , -1°C
Dew Point: 28°F , -2°C
Humidity: 93%
Barometer: 29.77 inHg , 1008.1 hPa
Clouds: Clear
Visibility: 7 miles , 11 km
2019/11/18 10:35 KMRT 181035Z AUTO 00000KT 7SM CLR M01/M02 A2977 RMK AO2 T10091021
KMNN - Marion, Ohio, USA
Distance from station: N 21mi, 34km
Updated: Mon, 18-Nov-2019 4:53am EST
Clear
Clear
 Wind from calm
Wind: Calm
Temperature: 36°F , 2°C
Dew Point: 28°F , -2°C
Humidity: 75%
Barometer: 29.78 inHg , 1008.5 hPa
Clouds: Clear
Visibility: 10 miles , 16 km
2019/11/18 09:53 KMNN 180953Z AUTO 00000KT 10SM CLR 02/M02 A2978 RMK AO2 SLP092 T00171017
 
KCMH - Columbus, Ohio, USA
Distance from station: SSE 24mi, 38km
Updated: Mon, 18-Nov-2019 5:51am EST
Mostly cloudy
Mostly cloudy
 Wind from calm
Wind: Calm
Temperature: 36°F , 2°C
Dew Point: 28°F , -2°C
Humidity: 75%
Barometer: 29.77 inHg , 1008.1 hPa
Clouds: Mostly cloudy
Visibility: 10 miles , 16 km
Cloud details: Mostly cloudy 20000 ft
2019/11/18 10:51 KCMH 181051Z 00000KT 10SM BKN200 02/M02 A2977 RMK AO2 SLP084 T00171017 $
K4I3 - Mt Vernon/Knox, Ohio, USA
Distance from station: E 29mi, 46km
Updated: Mon, 18-Nov-2019 5:42am EST
Clear
Clear
 Wind from calm
Wind: Calm
Temperature: 34°F , 1°C
Dew Point: 27°F , -3°C
Humidity: 75%
Barometer: 29.78 inHg , 1008.5 hPa
Clouds: Clear
Visibility: 10 miles , 16 km
2019/11/18 10:42 K4I3 181042Z AUTO 00000KT 10SM CLR 01/M03 A2978 RMK AO2
 
KTZR - Columbus/Bolton, Ohio, USA
Distance from station: S 29mi, 46km
Updated: Mon, 18-Nov-2019 5:35am EST
Clear
Clear
 Wind from calm
Wind: Calm
Temperature: 30°F , -1°C
Dew Point: 28°F , -2°C
Humidity: 93%
Barometer: 29.78 inHg , 1008.5 hPa
Clouds: Clear
Visibility: 10 miles , 16 km
2019/11/18 10:35 KTZR 181035Z AUTO 00000KT 10SM CLR M01/M02 A2978 RMK AO2 T10091016 TSNO
KUYF - London, Ohio, USA
Distance from station: SW 33mi, 54km
Updated: Mon, 18-Nov-2019 5:35am EST
Clear
Clear
 Wind from calm
Wind: Calm
Temperature: 30°F , -1°C
Dew Point: 28°F , -2°C
Humidity: 93%
Barometer: 29.77 inHg , 1008.1 hPa
Clouds: Clear
Visibility: 10 miles , 16 km
2019/11/18 10:35 KUYF 181035Z AUTO 00000KT 10SM CLR M01/M02 A2977 RMK AO2
 
KLCK - Rickenbacker Ang, Ohio, USA
Distance from station: SSE 35mi, 57km
Updated: Mon, 18-Nov-2019 5:35am EST
Clear
Clear
 Wind from calm
Wind: Calm
Temperature: 34°F , 1°C
Dew Point: 30°F , -1°C
Humidity: 87%
Barometer: 29.77 inHg , 1008.1 hPa
Clouds: Clear
Visibility: 10 miles , 16 km
2019/11/18 10:35 KLCK 181035Z AUTO 00000KT 10SM CLR 01/M01 A2977 RMK AO2 T00051009
KVTA - Newark, Ohio, USA
Distance from station: ESE 38mi, 61km
Updated: Mon, 18-Nov-2019 4:54am EST
Mostly cloudy
Mostly cloudy
 Wind from NE
Wind: NE 3 mph , 6 km/h
Temperature: 37°F , 3°C
Dew Point: 30°F , -1°C
Humidity: 75%
Barometer: 29.77 inHg , 1008.1 hPa
Clouds: Mostly cloudy
Visibility: 10 miles , 16 km
Cloud details: Mostly cloudy 11000 ft
2019/11/18 09:54 KVTA 180954Z AUTO 05003KT 10SM BKN110 03/M01 A2977 RMK AO2 SLP084 T00281011
 
KEDJ - Bellefontaine, Ohio, USA
Distance from station: W 39mi, 63km
Updated: Mon, 18-Nov-2019 5:40am EST
Clear
Clear
 Wind from calm
Wind: Calm
Temperature: 28°F , -2°C
Barometer: 29.77 inHg , 1008.1 hPa
Clouds: Clear
Visibility: 10 miles , 16 km
2019/11/18 10:40 KEDJ 181040Z AUTO 00000KT 10SM CLR M02/ A2977 RMK AO1
KLHQ - Lancaster, Ohio, USA
Distance from station: SSE 44mi, 71km
Updated: Mon, 18-Nov-2019 4:53am EST
Partly cloudy
Partly cloudy
 Wind from calm
Wind: Calm
Temperature: 36°F , 2°C
Dew Point: 30°F , -1°C
Humidity: 81%
Barometer: 29.78 inHg , 1008.5 hPa
Clouds: Partly cloudy
Visibility: 10 miles , 16 km
Cloud details: Partly cloudy 11000 ft
2019/11/18 09:53 KLHQ 180953Z AUTO 00000KT 10SM SCT110 02/M01 A2978 RMK AO2 SLP087 T00171006
 
KMFD - Mansfield, Ohio, USA
Distance from station: NE 46mi, 73km
Updated: Mon, 18-Nov-2019 4:52am EST
Overcast
Overcast
 Wind from ESE
Wind: ESE 5 mph , 7 km/h
Temperature: 37°F , 3°C
Wind Chill: 33°F , 1°C
Dew Point: 28°F , -2°C
Humidity: 70%
Barometer: 29.77 inHg , 1008.1 hPa
Clouds: Overcast
Visibility: 10 miles , 16 km
Cloud details: Mostly cloudy 7500 ft
Overcast 10000 ft
2019/11/18 09:52 KMFD 180952Z AUTO 11004KT 10SM BKN075 OVC100 03/M02 A2977 RMK AO2 SLP088 T00331017
KSGH - Springfield Muni, Ohio, USA
Distance from station: SW 52mi, 84km
Updated: Mon, 18-Nov-2019 4:56am EST
Clear
Clear
 Wind from calm
Wind: Calm
Temperature: 30°F , -1°C
Dew Point: 28°F , -2°C
Humidity: 93%
Barometer: 29.78 inHg , 1008.5 hPa
Clouds: Clear
Visibility: 9 miles , 14 km
2019/11/18 09:56 KSGH 180956Z AUTO 00000KT 9SM CLR M01/M02 A2978 RMK AO2 SLP093 T10111017 PNO $
 
KI23 - Washington Court, Ohio, USA
Distance from station: SSW 55mi, 88km
Updated: Mon, 18-Nov-2019 5:35am EST
Clear
Clear
 Wind from WSW
Wind: WSW 5 mph , 7 km/h
Temperature: 28°F , -2°C
Wind Chill: 22°F , -6°C
Dew Point: 27°F , -3°C
Humidity: 93%
Barometer: 29.77 inHg , 1008.1 hPa
Clouds: Clear
Visibility: 10 miles , 16 km
2019/11/18 10:35 KI23 181035Z AUTO 25004KT 10SM CLR M02/M03 A2977 RMK AO1
KAOH - Lima, Ohio, USA
Distance from station: WNW 56mi, 91km
Updated: Mon, 18-Nov-2019 4:53am EST
Mist, Clear
Mist, Clear
 Wind from S
Wind: S 3 mph , 6 km/h
Temperature: 30°F , -1°C
Dew Point: 28°F , -2°C
Humidity: 93%
Barometer: 29.77 inHg , 1008.1 hPa
Summary: Mist
Clouds: Clear
Visibility: 6 miles , 10 km
2019/11/18 09:53 KAOH 180953Z AUTO 17003KT 6SM BR CLR M01/M02 A2977 RMK AO2 SLP089 T10061022
 
KFDY - Findlay, Ohio, USA
Distance from station: NNW 58mi, 93km
Updated: Mon, 18-Nov-2019 4:53am EST
Clear
Clear
 Wind from calm
Wind: Calm
Temperature: 34°F , 1°C
Dew Point: 30°F , -1°C
Humidity: 87%
Barometer: 29.78 inHg , 1008.5 hPa
Clouds: Clear
Visibility: 9 miles , 14 km
2019/11/18 09:53 KFDY 180953Z AUTO 00000KT 9SM CLR 01/M01 A2978 RMK AO2 SLP085 T00111011
KFFO - Wright Paterson, Ohio, USA
Distance from station: SW 61mi, 98km
Updated: Mon, 18-Nov-2019 4:56am EST
Mostly cloudy
Mostly cloudy
 Wind from calm
Wind: Calm
Temperature: 30°F , -1°C
Dew Point: 28°F , -2°C
Humidity: 93%
Barometer: 29.78 inHg , 1008.5 hPa
Clouds: Mostly cloudy
Visibility: 10 miles , 16 km
Cloud details: Mostly cloudy 15000 ft
2019/11/18 09:56 KFFO 180956Z AUTO 00000KT 10SM BKN150 M01/M02 A2978 RMK AO2 VIS 1 5/8 RWY05L SLP093 T10101023
 
KRZT - Chillicothe, Ohio, USA
Distance from station: S 61mi, 98km
Updated: Mon, 18-Nov-2019 5:35am EST
Clear
Clear
 Wind from calm
Wind: Calm
Temperature: 32°F , 0°C
Dew Point: 32°F , 0°C
Humidity: 100%
Barometer: 29.78 inHg , 1008.5 hPa
Clouds: Clear
Visibility: 10 miles , 16 km
2019/11/18 10:35 KRZT 181035Z AUTO 00000KT 10SM CLR 00/00 A2978 RMK AO2
KI19 - Dayton-Jackson, Ohio, USA
Distance from station: SW 65mi, 105km
Updated: Mon, 18-Nov-2019 5:36am EST
Clear
Clear
 Wind from calm
Wind: Calm
Temperature: 30°F , -1°C
Dew Point: 28°F , -2°C
Humidity: 93%
Barometer: 29.79 inHg , 1008.8 hPa
Clouds: Clear
Visibility: 10 miles , 16 km
2019/11/18 10:36 KI19 181036Z AUTO 00000KT 10SM CLR M01/M02 A2979 RMK AO2 T10061016